createdAt,value
2018-04-01T00:00:49.731Z,9.10
2018-04-01T00:03:16.689Z,4.40
2018-04-01T00:05:43.677Z,2.90
2018-04-01T00:08:10.665Z,3.43
2018-04-01T00:10:37.659Z,2.53
2018-04-01T00:13:04.627Z,3.13
2018-04-01T00:15:31.610Z,3.60
2018-04-01T00:17:58.588Z,5.37
2018-04-01T00:20:25.570Z,5.30
2018-04-01T00:22:52.622Z,3.83
2018-04-01T00:25:19.590Z,3.93
2018-04-01T00:27:46.581Z,2.87
2018-04-01T00:30:13.557Z,2.97
2018-04-01T00:32:40.520Z,3.00
2018-04-01T00:35:07.500Z,3.20
2018-04-01T00:37:34.465Z,2.53
2018-04-01T00:40:02.221Z,2.93
2018-04-01T00:42:29.195Z,3.37
2018-04-01T00:44:56.173Z,3.40
2018-04-01T00:47:23.961Z,4.20
2018-04-01T00:49:50.940Z,6.00
2018-04-01T00:52:17.929Z,4.10
2018-04-01T00:54:45.680Z,5.10
2018-04-01T00:57:12.682Z,5.10
2018-04-01T00:59:39.668Z,4.20
2018-04-01T01:02:06.622Z,5.23
2018-04-01T01:04:33.618Z,4.93
2018-04-01T01:07:00.593Z,5.67
2018-04-01T01:09:27.555Z,6.97
2018-04-01T01:11:54.533Z,11.77
2018-04-01T01:14:22.262Z,4.27
2018-04-01T01:16:49.237Z,6.83
2018-04-01T01:19:17.016Z,4.47
2018-04-01T01:21:43.999Z,4.10
2018-04-01T01:24:10.986Z,4.10
2018-04-01T01:26:39.037Z,5.43
2018-04-01T01:29:06.034Z,5.17
2018-04-01T01:31:40.284Z,4.60
2018-04-01T01:34:07.255Z,4.03
2018-04-01T01:36:34.235Z,5.00
2018-04-01T01:39:01.237Z,4.60
2018-04-01T01:41:28.192Z,4.60
2018-04-01T01:43:55.783Z,7.47
2018-04-01T01:46:22.745Z,4.27
2018-04-01T01:48:49.751Z,7.33
2018-04-01T01:51:16.737Z,5.87
2018-04-01T01:53:43.722Z,4.40
2018-04-01T01:56:10.750Z,6.57
2018-04-01T01:58:37.723Z,4.37
2018-04-01T02:01:04.700Z,5.93
2018-04-01T02:03:31.670Z,7.53
2018-04-01T02:05:58.637Z,5.03
2018-04-01T02:08:25.618Z,5.50
2018-04-01T02:10:53.367Z,7.10
2018-04-01T02:13:20.362Z,5.83
2018-04-01T02:15:48.063Z,5.50
2018-04-01T02:18:15.043Z,5.30
2018-04-01T02:20:42.817Z,5.87
2018-04-01T02:23:09.801Z,6.10
2018-04-01T02:25:36.815Z,6.30
2018-04-01T02:28:03.755Z,5.13
2018-04-01T02:30:30.733Z,6.10
2018-04-01T02:32:57.731Z,6.97
2018-04-01T02:35:24.692Z,5.20
2018-04-01T02:37:51.729Z,4.63
2018-04-01T02:40:18.692Z,5.80
2018-04-01T02:42:45.667Z,5.63
2018-04-01T02:45:12.636Z,4.90
2018-04-01T02:47:39.596Z,6.70
2018-04-01T02:50:06.571Z,7.93
2018-04-01T02:52:34.068Z,9.53
2018-04-01T02:55:01.060Z,8.40
2018-04-01T02:57:28.040Z,7.67
2018-04-01T02:59:55.011Z,7.97
2018-04-01T03:02:21.990Z,7.60
2018-04-01T03:04:48.956Z,9.97
2018-04-01T03:07:16.003Z,8.80
2018-04-01T03:09:43.006Z,7.30
2018-04-01T03:12:10.012Z,9.83
2018-04-01T03:14:36.998Z,7.40
2018-04-01T03:17:03.960Z,8.90
2018-04-01T03:19:30.951Z,10.17
2018-04-01T03:21:57.941Z,9.90
2018-04-01T03:24:24.914Z,9.00
2018-04-01T03:26:51.956Z,13.40
2018-04-01T03:29:18.931Z,10.13
2018-04-01T03:31:45.941Z,12.20
2018-04-01T03:34:12.933Z,10.40
2018-04-01T03:36:39.890Z,10.97
2018-04-01T03:39:06.884Z,11.57
2018-04-01T03:41:34.670Z,12.53
2018-04-01T03:44:01.642Z,15.17
2018-04-01T03:46:28.644Z,12.07
2018-04-01T03:48:56.475Z,13.87
2018-04-01T03:51:23.495Z,13.50
2018-04-01T03:53:50.464Z,13.10
2018-04-01T03:56:17.440Z,13.13
2018-04-01T03:58:46.107Z,16.40
2018-04-01T04:01:13.107Z,15.17
2018-04-01T04:03:40.086Z,16.20
2018-04-01T04:06:07.850Z,16.23
2018-04-01T04:08:35.333Z,15.73
2018-04-01T04:11:02.357Z,16.93
2018-04-01T04:13:29.337Z,16.80
2018-04-01T04:15:56.345Z,18.63
2018-04-01T04:18:23.366Z,18.40
2018-04-01T04:20:51.155Z,17.80
2018-04-01T04:23:18.159Z,15.80
2018-04-01T04:25:45.899Z,21.63
2018-04-01T04:28:12.857Z,16.13
2018-04-01T04:30:39.858Z,18.20
2018-04-01T04:33:06.831Z,17.83
2018-04-01T04:35:33.827Z,16.87
2018-04-01T04:38:00.858Z,17.87
2018-04-01T04:40:27.830Z,17.40
2018-04-01T04:42:54.850Z,23.87
2018-04-01T04:45:21.847Z,19.93
2018-04-01T04:47:48.818Z,18.10
2018-04-01T04:50:16.573Z,17.83
2018-04-01T04:52:44.321Z,21.90
2018-04-01T04:55:11.337Z,19.77
2018-04-01T04:57:38.310Z,21.40
2018-04-01T05:00:05.300Z,20.30
2018-04-01T05:02:32.277Z,18.23
2018-04-01T05:05:00.173Z,23.27
2018-04-01T05:07:27.150Z,21.47
2018-04-01T05:09:54.133Z,20.20
2018-04-01T05:12:21.112Z,18.53
2018-04-01T05:14:48.086Z,20.10
2018-04-01T05:17:15.276Z,14.50
2018-04-01T05:19:42.241Z,13.80
2018-04-01T05:22:09.229Z,16.00
2018-04-01T05:24:36.198Z,14.93
2018-04-01T05:27:03.161Z,13.10
2018-04-01T05:29:30.179Z,14.40
2018-04-01T05:31:57.230Z,18.63
2018-04-01T05:34:24.222Z,16.50
2018-04-01T05:36:51.226Z,18.83
2018-04-01T05:39:18.203Z,19.17
2018-04-01T05:41:45.182Z,15.17
2018-04-01T05:44:12.181Z,16.40
2018-04-01T05:46:39.146Z,19.57
2018-04-01T05:49:06.125Z,18.90
2018-04-01T05:51:33.867Z,17.90
2018-04-01T05:54:00.834Z,19.70
2018-04-01T05:56:27.820Z,17.60
2018-04-01T05:58:54.794Z,17.63
2018-04-01T06:01:21.774Z,18.57
2018-04-01T06:03:49.519Z,18.80
2018-04-01T06:06:16.535Z,18.03
2018-04-01T06:08:43.517Z,18.57
2018-04-01T06:11:10.481Z,17.43
2018-04-01T06:13:37.477Z,19.80
2018-04-01T06:16:04.448Z,19.70
2018-04-01T06:18:31.431Z,16.30
2018-04-01T06:20:58.418Z,18.00
2018-04-01T06:23:25.417Z,22.13
2018-04-01T06:25:52.443Z,19.50
2018-04-01T06:28:19.749Z,20.73
2018-04-01T06:30:46.748Z,18.50
2018-04-01T06:33:14.506Z,23.13
2018-04-01T06:35:41.903Z,24.67
2018-04-01T06:38:08.878Z,21.40
2018-04-01T06:40:35.944Z,18.17
2018-04-01T06:43:03.021Z,20.03
2018-04-01T06:45:30.458Z,23.57
2018-04-01T06:47:58.538Z,25.33
2018-04-01T06:50:25.532Z,20.60
2018-04-01T06:52:52.563Z,21.53
2018-04-01T06:55:19.600Z,19.13
2018-04-01T06:57:46.636Z,20.30
2018-04-01T07:00:13.615Z,21.33
2018-04-01T07:02:40.637Z,16.70
2018-04-01T07:05:07.619Z,25.87
2018-04-01T07:07:34.607Z,16.93
2018-04-01T07:10:02.370Z,16.73
2018-04-01T07:12:30.112Z,20.90
2018-04-01T07:14:57.106Z,18.80
2018-04-01T07:17:24.068Z,23.03
2018-04-01T07:19:51.080Z,23.37
2018-04-01T07:22:18.845Z,21.07
2018-04-01T07:24:46.589Z,21.53
2018-04-01T07:27:13.602Z,19.73
2018-04-01T07:29:40.589Z,22.40
2018-04-01T07:32:07.561Z,20.83
2018-04-01T07:34:34.555Z,15.87
2018-04-01T07:37:01.537Z,19.27
2018-04-01T07:39:28.606Z,19.13
2018-04-01T07:41:55.687Z,19.40
2018-04-01T07:44:23.094Z,22.40
2018-04-01T07:46:50.242Z,24.13
2018-04-01T07:49:18.111Z,20.27
2018-04-01T07:51:45.123Z,23.73
2018-04-01T07:54:12.087Z,21.03
2018-04-01T07:56:39.902Z,18.50
2018-04-01T07:59:06.927Z,26.00
2018-04-01T08:01:34.264Z,19.87
2018-04-01T08:04:03.004Z,22.53
2018-04-01T08:06:30.960Z,19.63
2018-04-01T08:09:04.462Z,20.17
2018-04-01T08:11:31.565Z,16.40
2018-04-01T08:14:01.451Z,17.90
2018-04-01T08:16:28.497Z,18.43
2018-04-01T08:18:55.663Z,15.60
2018-04-01T08:21:22.697Z,16.27
2018-04-01T08:23:49.929Z,13.10
2018-04-01T08:26:17.138Z,13.87
2018-04-01T08:28:45.008Z,15.40
2018-04-01T08:31:12.816Z,15.63
2018-04-01T08:33:39.809Z,13.63
2018-04-01T08:36:07.675Z,14.67
2018-04-01T08:38:35.437Z,13.83
2018-04-01T08:41:02.463Z,12.73
2018-04-01T08:43:29.787Z,10.90
2018-04-01T08:45:56.852Z,12.23
2018-04-01T08:48:23.841Z,9.43
2018-04-01T08:50:50.831Z,13.87
2018-04-01T08:53:18.623Z,15.03
2018-04-01T08:55:45.813Z,13.17
2018-04-01T08:58:13.570Z,12.70
2018-04-01T09:00:40.566Z,13.43
2018-04-01T09:03:07.531Z,11.47
2018-04-01T09:05:34.528Z,11.67
2018-04-01T09:08:01.495Z,11.70
2018-04-01T09:10:28.516Z,11.83
2018-04-01T09:12:56.667Z,10.60
2018-04-01T09:15:24.406Z,10.27
2018-04-01T09:17:51.396Z,12.50
2018-04-01T09:20:18.961Z,8.50
2018-04-01T09:22:46.226Z,10.03
2018-04-01T09:25:13.299Z,16.30
2018-04-01T09:27:40.291Z,12.70
2018-04-01T09:30:08.182Z,14.90
2018-04-01T09:32:35.812Z,10.47
2018-04-01T09:35:03.564Z,10.80
2018-04-01T09:37:30.576Z,11.97
2018-04-01T09:39:57.574Z,10.90
2018-04-01T09:42:25.344Z,7.53
2018-04-01T09:44:52.394Z,12.03
2018-04-01T09:47:19.366Z,12.93
2018-04-01T09:49:46.365Z,10.70
2018-04-01T09:52:14.221Z,11.27
2018-04-01T09:54:43.364Z,8.57
2018-04-01T09:57:08.964Z,10.10
2018-04-01T09:59:35.946Z,9.87
2018-04-01T10:02:03.445Z,10.07
2018-04-01T10:04:31.659Z,7.57
2018-04-01T10:06:59.243Z,10.33
2018-04-01T10:09:26.828Z,11.13
2018-04-01T10:11:55.095Z,10.30
2018-04-01T10:14:23.413Z,10.33
2018-04-01T10:16:50.875Z,9.33
2018-04-01T10:19:18.536Z,8.40
2018-04-01T10:21:46.021Z,9.73
2018-04-01T10:24:13.497Z,12.33
2018-04-01T10:26:41.040Z,7.70
2018-04-01T10:29:08.527Z,10.57
2018-04-01T10:31:35.985Z,10.87
2018-04-01T10:34:04.274Z,7.90
2018-04-01T10:36:31.804Z,6.13
2018-04-01T10:38:59.325Z,7.80
2018-04-01T10:41:27.290Z,8.10
2018-04-01T10:43:54.860Z,7.70
2018-04-01T10:46:22.368Z,8.13
2018-04-01T10:48:50.624Z,13.20
2018-04-01T10:51:18.120Z,10.07
2018-04-01T10:54:00.719Z,8.93
2018-04-01T10:56:27.726Z,10.13
2018-04-01T10:58:54.707Z,10.10
2018-04-01T11:01:22.458Z,8.07
2018-04-01T11:03:49.447Z,10.13
2018-04-01T11:06:16.513Z,8.60
2018-04-01T11:08:43.500Z,6.67
2018-04-01T11:11:10.478Z,8.53
2018-04-01T11:13:37.460Z,10.40
2018-04-01T11:16:04.724Z,7.43
2018-04-01T11:18:31.720Z,7.70
2018-04-01T11:20:58.716Z,8.47
2018-04-01T11:23:25.700Z,7.67
2018-04-01T11:25:52.722Z,8.03
2018-04-01T11:28:19.707Z,8.70
2018-04-01T11:30:46.733Z,7.00
2018-04-01T11:33:14.491Z,6.53
2018-04-01T11:35:41.465Z,7.20
2018-04-01T11:38:08.437Z,5.80
2018-04-01T11:40:35.428Z,6.30
2018-04-01T11:43:02.394Z,7.00
2018-04-01T11:45:29.365Z,6.20
2018-04-01T11:47:56.356Z,4.90
2018-04-01T11:50:23.309Z,6.33
2018-04-01T11:52:50.305Z,6.00
2018-04-01T11:55:17.288Z,7.60
2018-04-01T11:57:44.268Z,5.47
2018-04-01T12:00:11.260Z,7.97
2018-04-01T12:02:38.256Z,6.07
2018-04-01T12:05:06.017Z,5.57
2018-04-01T12:07:33.789Z,9.53
2018-04-01T12:10:00.758Z,7.33
2018-04-01T12:12:27.753Z,9.57
2018-04-01T12:14:54.742Z,6.03
2018-04-01T12:17:21.751Z,5.67
2018-04-01T12:19:48.721Z,12.13
2018-04-01T12:22:15.715Z,10.20
2018-04-01T12:24:42.709Z,9.30
2018-04-01T12:27:10.451Z,8.00
2018-04-01T12:29:37.440Z,6.03
2018-04-01T12:32:04.448Z,6.57
2018-04-01T12:34:31.440Z,6.10
2018-04-01T12:36:58.439Z,6.00
2018-04-01T12:39:25.427Z,7.93
2018-04-01T12:42:06.521Z,7.37
2018-04-01T12:44:33.497Z,5.67
2018-04-01T12:47:00.499Z,6.20
2018-04-01T12:49:27.598Z,6.63
2018-04-01T12:51:54.567Z,5.47
2018-04-01T12:54:21.575Z,7.30
2018-04-01T12:56:48.553Z,6.33
2018-04-01T12:59:15.528Z,5.47
2018-04-01T13:01:42.518Z,8.20
2018-04-01T13:04:09.529Z,6.93
2018-04-01T13:06:36.499Z,6.50
2018-04-01T13:09:03.547Z,9.27
2018-04-01T13:11:31.009Z,6.43
2018-04-01T13:13:58.656Z,6.00
2018-04-01T13:16:25.636Z,6.20
2018-04-01T13:18:52.625Z,7.07
2018-04-01T13:21:19.611Z,8.30
2018-04-01T13:23:46.859Z,6.30
2018-04-01T13:26:13.897Z,6.30
2018-04-01T13:28:40.839Z,6.40
2018-04-01T13:31:07.853Z,7.80
2018-04-01T13:33:34.847Z,7.20
2018-04-01T13:36:01.828Z,4.23
2018-04-01T13:38:29.623Z,4.97
2018-04-01T13:40:56.641Z,6.33
2018-04-01T13:43:23.654Z,5.13
2018-04-01T13:45:50.680Z,8.30
2018-04-01T13:48:17.657Z,8.63
2018-04-01T13:50:44.666Z,5.73
2018-04-01T13:53:11.758Z,5.93
2018-04-01T13:55:38.933Z,7.70
2018-04-01T13:58:06.684Z,6.00
2018-04-01T14:00:33.665Z,6.80
2018-04-01T14:03:00.642Z,6.07
2018-04-01T14:05:27.626Z,5.73
2018-04-01T14:07:54.627Z,6.60
2018-04-01T14:10:21.627Z,6.40
2018-04-01T14:12:48.626Z,6.13
2018-04-01T14:15:15.620Z,6.87
2018-04-01T14:17:43.384Z,6.13
2018-04-01T14:20:10.357Z,5.10
2018-04-01T14:22:37.335Z,6.00
2018-04-01T14:25:04.331Z,7.10
2018-04-01T14:27:32.132Z,6.83
2018-04-01T14:29:59.108Z,8.67
2018-04-01T14:32:26.877Z,6.10
2018-04-01T14:34:53.847Z,8.40
2018-04-01T14:37:20.823Z,7.03
2018-04-01T14:39:47.786Z,6.50
2018-04-01T14:42:14.803Z,3.67
2018-04-01T14:44:41.781Z,4.60
2018-04-01T14:47:08.764Z,3.67
2018-04-01T14:49:35.739Z,4.63
2018-04-01T14:52:02.727Z,5.23
2018-04-01T14:54:29.686Z,5.27
2018-04-01T14:56:57.452Z,6.00
2018-04-01T14:59:24.416Z,5.90
2018-04-01T15:01:51.407Z,5.53
2018-04-01T15:04:18.386Z,5.80
2018-04-01T15:06:45.364Z,5.93
2018-04-01T15:09:12.326Z,5.20
2018-04-01T15:11:39.282Z,4.60
2018-04-01T15:14:06.265Z,5.50
2018-04-01T15:16:33.268Z,5.63
2018-04-01T15:19:00.245Z,4.70
2018-04-01T15:21:27.206Z,6.10
2018-04-01T15:23:54.213Z,8.73
2018-04-01T15:26:21.188Z,7.53
2018-04-01T15:28:48.151Z,6.30
2018-04-01T15:31:15.169Z,12.37
2018-04-01T15:33:42.183Z,13.53
2018-04-01T15:36:09.162Z,15.40
2018-04-01T15:38:39.812Z,15.33
2018-04-01T15:41:07.674Z,14.33
2018-04-01T15:43:34.665Z,13.90
2018-04-01T15:46:01.656Z,13.40
2018-04-01T15:48:28.626Z,11.17
2018-04-01T15:50:56.367Z,11.33
2018-04-01T15:53:23.363Z,16.17
2018-04-01T15:55:50.328Z,17.00
2018-04-01T15:58:17.294Z,17.50
2018-04-01T16:00:44.291Z,14.37
2018-04-01T16:03:12.036Z,20.90
2018-04-01T16:05:39.776Z,13.23
2018-04-01T16:08:06.756Z,18.60
2018-04-01T16:10:33.760Z,19.40
2018-04-01T16:13:00.730Z,10.77
2018-04-01T16:15:27.723Z,16.80
2018-04-01T16:17:54.770Z,12.40
2018-04-01T16:20:21.734Z,15.83
2018-04-01T16:22:56.936Z,11.53
2018-04-01T16:25:24.697Z,14.53
2018-04-01T16:27:51.707Z,20.40
2018-04-01T16:30:18.717Z,15.97
2018-04-01T16:32:45.708Z,16.87
2018-04-01T16:35:12.694Z,16.20
2018-04-01T16:37:39.663Z,17.80
2018-04-01T16:40:06.671Z,20.97
2018-04-01T16:42:33.709Z,20.30
2018-04-01T16:45:01.436Z,19.13
2018-04-01T16:47:28.431Z,19.50
2018-04-01T16:49:56.202Z,19.77
2018-04-01T16:52:23.177Z,18.63
2018-04-01T16:54:50.157Z,20.87
2018-04-01T16:57:17.146Z,25.17
2018-04-01T16:59:44.147Z,23.93
2018-04-01T17:02:11.110Z,31.47
2018-04-01T17:04:38.126Z,24.27
2018-04-01T17:07:05.120Z,25.40
2018-04-01T17:09:32.168Z,23.43
2018-04-01T17:11:59.134Z,21.10
2018-04-01T17:14:26.115Z,22.70
2018-04-01T17:16:53.273Z,23.33
2018-04-01T17:19:20.320Z,26.30
2018-04-01T17:21:48.098Z,21.90
2018-04-01T17:24:15.093Z,21.53
2018-04-01T17:26:42.069Z,29.43
2018-04-01T17:29:09.067Z,19.53
2018-04-01T17:31:36.054Z,18.53
2018-04-01T17:34:03.045Z,26.07
2018-04-01T17:36:30.068Z,24.73
2018-04-01T17:38:57.060Z,29.13
2018-04-01T17:41:24.095Z,39.67
2018-04-01T17:43:51.044Z,25.13
2018-04-01T17:46:18.022Z,19.47
2018-04-01T17:48:45.068Z,26.93
2018-04-01T17:51:12.052Z,27.40
2018-04-01T17:53:39.833Z,25.93
2018-04-01T17:56:07.577Z,21.80
2018-04-01T17:58:34.542Z,25.73
2018-04-01T18:01:02.304Z,20.77
2018-04-01T18:03:30.036Z,24.93
2018-04-01T18:05:57.036Z,23.83
2018-04-01T18:08:24.060Z,20.40
2018-04-01T18:10:51.086Z,27.47
2018-04-01T18:13:18.066Z,22.37
2018-04-01T18:15:45.040Z,19.57
2018-04-01T18:18:12.038Z,21.97
2018-04-01T18:20:39.016Z,20.50
2018-04-01T18:23:06.072Z,20.03
2018-04-01T18:25:33.058Z,22.90
2018-04-01T18:28:00.037Z,25.03
2018-04-01T18:30:27.790Z,21.27
2018-04-01T18:32:54.760Z,19.47
2018-04-01T18:35:21.759Z,20.93
2018-04-01T18:37:48.753Z,24.67
2018-04-01T18:40:15.729Z,19.50
2018-04-01T18:42:43.478Z,22.53
2018-04-01T18:45:10.475Z,24.17
2018-04-01T18:47:37.465Z,21.53
2018-04-01T18:50:04.500Z,20.23
2018-04-01T18:52:31.496Z,23.47
2018-04-01T18:54:58.506Z,25.37
2018-04-01T18:57:25.489Z,34.20
2018-04-01T18:59:52.484Z,26.30
2018-04-01T19:02:19.482Z,31.47
2018-04-01T19:04:46.534Z,31.87
2018-04-01T19:07:13.524Z,41.90
2018-04-01T19:09:40.507Z,33.13
2018-04-01T19:12:07.508Z,39.80
2018-04-01T19:14:34.535Z,32.60
2018-04-01T19:17:13.011Z,30.07
2018-04-01T19:19:40.496Z,33.30
2018-04-01T19:22:08.017Z,34.60
2018-04-01T19:24:35.521Z,34.27
2018-04-01T19:27:03.010Z,34.30
2018-04-01T19:29:30.499Z,35.00
2018-04-01T19:31:58.024Z,31.93
2018-04-01T19:34:25.528Z,34.60
2018-04-01T19:36:52.984Z,33.67
2018-04-01T19:39:20.436Z,32.23
2018-04-01T19:41:47.939Z,34.80
2018-04-01T19:44:16.306Z,33.57
2018-04-01T19:46:44.556Z,33.60
2018-04-01T19:49:12.070Z,31.33
2018-04-01T19:51:39.617Z,34.97
2018-04-01T19:54:07.853Z,34.47
2018-04-01T19:56:35.332Z,32.90
2018-04-01T19:59:02.809Z,33.50
2018-04-01T20:01:30.295Z,31.57
2018-04-01T20:03:57.750Z,33.90
2018-04-01T20:06:25.209Z,30.87
2018-04-01T20:08:52.725Z,38.27
2018-04-01T20:11:20.182Z,35.47
2018-04-01T20:13:47.733Z,35.53
2018-04-01T20:16:15.156Z,27.80
2018-04-01T20:18:42.619Z,28.10
2018-04-01T20:21:10.111Z,33.47
2018-04-01T20:23:38.341Z,37.43
2018-04-01T20:26:05.939Z,30.10
2018-04-01T20:28:33.421Z,33.87
2018-04-01T20:31:01.664Z,28.80
2018-04-01T20:33:29.155Z,37.50
2018-04-01T20:35:56.622Z,34.53
2018-04-01T20:38:24.123Z,36.47
2018-04-01T20:40:51.671Z,37.83
2018-04-01T20:43:19.901Z,32.60
2018-04-01T20:45:48.134Z,31.73
2018-04-01T20:48:15.698Z,35.67
2018-04-01T20:50:43.193Z,42.17
2018-04-01T20:53:11.433Z,32.47
2018-04-01T20:55:38.890Z,31.50
2018-04-01T20:58:06.398Z,35.57
2018-04-01T21:00:33.868Z,33.50
2018-04-01T21:03:01.353Z,27.57
2018-04-01T21:05:28.830Z,27.80
2018-04-01T21:07:56.482Z,30.97
2018-04-01T21:10:23.956Z,29.50
2018-04-01T21:12:51.450Z,27.83
2018-04-01T21:15:18.977Z,36.93
2018-04-01T21:17:53.604Z,30.73
2018-04-01T21:20:21.888Z,28.93
2018-04-01T21:22:50.150Z,38.57
2018-04-01T21:25:17.618Z,31.80
2018-04-01T21:27:45.092Z,29.30
2018-04-01T21:30:12.600Z,29.90
2018-04-01T21:32:40.082Z,32.13
2018-04-01T21:35:07.563Z,28.33
2018-04-01T21:37:43.786Z,31.20
2018-04-01T21:40:11.515Z,32.70
2018-04-01T21:42:39.223Z,28.70
2018-04-01T21:45:06.699Z,33.03
2018-04-01T21:47:34.936Z,32.63
2018-04-01T21:50:02.464Z,32.20
2018-04-01T21:52:30.716Z,36.20
2018-04-01T21:54:58.187Z,37.73
2018-04-01T21:57:25.951Z,38.17
2018-04-01T21:59:53.558Z,33.30
2018-04-01T22:02:21.042Z,31.73
2018-04-01T22:04:53.191Z,30.60
2018-04-01T22:07:20.677Z,28.93
2018-04-01T22:09:48.170Z,27.50
2018-04-01T22:12:15.628Z,29.10
2018-04-01T22:14:43.202Z,28.20
2018-04-01T22:17:11.410Z,30.67
2018-04-01T22:19:39.641Z,29.53
2018-04-01T22:22:07.115Z,34.13
2018-04-01T22:24:34.585Z,31.10
2018-04-01T22:27:02.051Z,32.43
2018-04-01T22:29:29.548Z,25.97
2018-04-01T22:31:57.022Z,30.40
2018-04-01T22:34:24.502Z,28.63
2018-04-01T22:36:51.967Z,31.10
2018-04-01T22:39:19.448Z,29.03
2018-04-01T22:41:47.685Z,29.70
2018-04-01T22:44:15.146Z,28.70
2018-04-01T22:46:42.618Z,31.77
2018-04-01T22:49:10.158Z,29.60
2018-04-01T22:51:37.616Z,27.57
2018-04-01T22:54:05.120Z,26.63
2018-04-01T22:56:32.544Z,29.27
2018-04-01T22:59:00.023Z,31.00
2018-04-01T23:01:28.248Z,27.93
2018-04-01T23:03:55.712Z,27.40
2018-04-01T23:06:23.203Z,25.47
2018-04-01T23:08:50.671Z,27.40
2018-04-01T23:11:18.916Z,27.47
2018-04-01T23:13:46.428Z,23.27
2018-04-01T23:16:13.843Z,25.37
2018-04-01T23:18:41.318Z,25.30
2018-04-01T23:21:09.545Z,27.30
2018-04-01T23:23:37.010Z,24.83
2018-04-01T23:26:04.471Z,24.50
2018-04-01T23:28:31.979Z,27.57
2018-04-01T23:30:59.459Z,29.63
2018-04-01T23:33:26.919Z,25.67
2018-04-01T23:35:54.400Z,29.43
2018-04-01T23:38:22.628Z,32.23
2018-04-01T23:40:50.117Z,28.67
2018-04-01T23:43:17.585Z,26.00
2018-04-01T23:45:45.043Z,26.37
2018-04-01T23:48:12.523Z,24.57
2018-04-01T23:50:39.993Z,28.10
2018-04-01T23:53:07.466Z,25.80
2018-04-01T23:55:34.952Z,31.40
2018-04-01T23:58:02.422Z,26.60
